createdAt,value
2022-11-28T00:01:49.272Z,100908.31
2022-11-28T00:04:52.498Z,100906.41
2022-11-28T00:07:55.886Z,100900.22
2022-11-28T00:10:58.818Z,100896.03
2022-11-28T00:14:01.129Z,100890.72
2022-11-28T00:17:03.385Z,100897.59
2022-11-28T00:20:06.872Z,100906.22
2022-11-28T00:23:09.676Z,100898.37
2022-11-28T00:26:24.455Z,100896.69
2022-11-28T00:29:27.324Z,100896.69
2022-11-28T00:32:29.913Z,100892.41
2022-11-28T00:35:32.219Z,100894.13
2022-11-28T00:38:34.553Z,100895.91
2022-11-28T00:41:37.099Z,100899.47
2022-11-28T00:44:39.467Z,100892.41
2022-11-28T00:47:41.840Z,100894.97
2022-11-28T00:50:44.019Z,100894.13
2022-11-28T00:53:48.239Z,100897.53
2022-11-28T00:56:50.483Z,100897.44
2022-11-28T00:59:52.663Z,100888.75
2022-11-28T01:02:54.936Z,100887.84
2022-11-28T01:05:57.278Z,100888.75
2022-11-28T01:09:02.365Z,100891.34
2022-11-28T01:12:04.870Z,100877.34
2022-11-28T01:15:09.711Z,100875.56
2022-11-28T01:18:11.903Z,100872.22
2022-11-28T01:21:14.153Z,100866.22
2022-11-28T01:24:16.735Z,100861.97
2022-11-28T01:27:18.974Z,100857.63
2022-11-28T01:30:21.424Z,100852.59
2022-11-28T01:33:23.662Z,100843.00
2022-11-28T01:36:27.121Z,100846.50
2022-11-28T01:39:29.582Z,100839.44
2022-11-28T01:42:31.840Z,100838.53
2022-11-28T01:45:34.153Z,100831.56
2022-11-28T01:48:42.229Z,100824.47
2022-11-28T01:52:05.240Z,100818.41
2022-11-28T01:55:08.451Z,100821.06
2022-11-28T01:58:12.329Z,100810.63
2022-11-28T02:01:15.654Z,100793.03
2022-11-28T02:04:18.386Z,100797.38
2022-11-28T02:07:21.010Z,100785.13
2022-11-28T02:10:44.178Z,100788.78
2022-11-28T02:14:11.578Z,100779.97
2022-11-28T02:17:44.129Z,100782.53
2022-11-28T02:21:05.727Z,100784.22
2022-11-28T02:24:17.018Z,100778.19
2022-11-28T02:27:28.208Z,100773.78
2022-11-28T02:30:51.385Z,100768.44
2022-11-28T02:34:00.741Z,100773.63
2022-11-28T02:37:14.694Z,100769.25
2022-11-28T02:40:42.323Z,100763.97
2022-11-28T02:43:59.275Z,100759.56
2022-11-28T02:47:10.074Z,100754.47
2022-11-28T02:50:47.028Z,100750.81
2022-11-28T02:53:51.163Z,100754.25
2022-11-28T02:56:55.391Z,100753.31
2022-11-28T02:59:57.724Z,100746.59
2022-11-28T03:03:18.810Z,100739.63
2022-11-28T03:06:23.832Z,100736.00
2022-11-28T03:09:44.517Z,100734.31
2022-11-28T03:13:10.040Z,100730.16
2022-11-28T03:16:32.575Z,100727.53
2022-11-28T03:19:42.933Z,100719.69
2022-11-28T03:23:01.641Z,100716.25
2022-11-28T03:26:16.030Z,100712.78
2022-11-28T03:29:53.235Z,100704.91
2022-11-28T03:32:58.315Z,100705.75
2022-11-28T03:36:27.678Z,100703.97
2022-11-28T03:39:35.230Z,100701.37
2022-11-28T03:42:42.779Z,100707.41
2022-11-28T03:45:51.846Z,100719.50
2022-11-28T03:48:59.210Z,100723.72
2022-11-28T03:52:07.488Z,100712.31
2022-11-28T03:55:31.580Z,100714.03
2022-11-28T03:59:02.691Z,100706.31
2022-11-28T04:02:32.876Z,100706.25
2022-11-28T04:05:54.929Z,100714.03
2022-11-28T04:09:14.410Z,100702.78
2022-11-28T04:12:31.911Z,100699.31
2022-11-28T04:15:53.417Z,100695.69
2022-11-28T04:19:13.595Z,100702.72
2022-11-28T04:22:28.969Z,100693.25
2022-11-28T04:25:35.710Z,100700.31
2022-11-28T04:28:39.673Z,100693.25
2022-11-28T04:31:45.363Z,100698.53
2022-11-28T04:35:02.130Z,100687.31
2022-11-28T04:38:06.994Z,100689.16
2022-11-28T04:41:20.631Z,100681.37
2022-11-28T04:44:28.531Z,100679.69
2022-11-28T04:47:30.948Z,100677.09
2022-11-28T04:51:08.990Z,100672.75
2022-11-28T04:54:31.374Z,100677.00
2022-11-28T04:57:39.178Z,100682.25
2022-11-28T05:00:44.070Z,100678.75
2022-11-28T05:03:46.856Z,100682.16
2022-11-28T05:06:49.138Z,100686.53
2022-11-28T05:09:51.814Z,100687.31
2022-11-28T05:12:54.388Z,100683.91
2022-11-28T05:16:00.703Z,100686.41
2022-11-28T05:19:02.924Z,100687.31
2022-11-28T05:22:05.212Z,100689.88
2022-11-28T05:25:07.794Z,100686.41
2022-11-28T05:28:10.809Z,100685.63
2022-11-28T05:31:14.027Z,100694.50
2022-11-28T05:34:16.444Z,100691.91
2022-11-28T05:37:18.790Z,100695.44
2022-11-28T05:40:20.986Z,100688.50
2022-11-28T05:43:23.196Z,100685.91
2022-11-28T05:46:26.324Z,100689.44
2022-11-28T05:49:29.111Z,100690.47
2022-11-28T05:52:32.590Z,100686.06
2022-11-28T05:55:35.497Z,100688.06
2022-11-28T05:58:37.932Z,100683.78
2022-11-28T06:01:40.497Z,100681.28
2022-11-28T06:04:42.994Z,100675.28
2022-11-28T06:07:45.236Z,100680.59
2022-11-28T06:10:57.294Z,100684.16
2022-11-28T06:13:59.640Z,100676.41
2022-11-28T06:17:01.854Z,100676.59
2022-11-28T06:20:05.206Z,100668.91
2022-11-28T06:23:07.798Z,100678.63
2022-11-28T06:26:15.639Z,100670.06
2022-11-28T06:29:17.835Z,100675.41
2022-11-28T06:32:22.204Z,100674.50
2022-11-28T06:35:24.692Z,100680.63
2022-11-28T06:38:27.141Z,100681.37
2022-11-28T06:41:29.430Z,100687.44
2022-11-28T06:44:31.837Z,100683.88
2022-11-28T06:47:34.061Z,100679.53
2022-11-28T06:50:36.314Z,100679.47
2022-11-28T06:53:38.829Z,100688.09
2022-11-28T06:56:41.417Z,100681.03
2022-11-28T06:59:43.825Z,100679.22
2022-11-28T07:02:46.977Z,100676.59
2022-11-28T07:05:49.399Z,100668.63
2022-11-28T07:08:51.994Z,100670.13
2022-11-28T07:11:54.170Z,100665.03
2022-11-28T07:14:56.399Z,100676.34
2022-11-28T07:17:58.555Z,100674.44
2022-11-28T07:21:01.706Z,100680.47
2022-11-28T07:24:04.413Z,100678.66
2022-11-28T07:27:06.834Z,100679.59
2022-11-28T07:30:12.860Z,100685.34
2022-11-28T07:33:15.058Z,100683.63
2022-11-28T07:36:24.355Z,100682.00
2022-11-28T07:39:26.770Z,100673.25
2022-11-28T07:42:29.213Z,100671.47
2022-11-28T07:45:47.505Z,100672.28
2022-11-28T07:48:54.336Z,100663.44
2022-11-28T07:51:58.274Z,100667.87
2022-11-28T07:55:00.711Z,100668.66
2022-11-28T07:58:04.102Z,100668.66
2022-11-28T08:01:21.118Z,100661.78
2022-11-28T08:04:23.554Z,100669.00
2022-11-28T08:07:26.363Z,100662.16
2022-11-28T08:10:28.966Z,100661.88
2022-11-28T08:13:31.180Z,100667.37
2022-11-28T08:16:33.867Z,100662.97
2022-11-28T08:19:36.257Z,100657.78
2022-11-28T08:22:38.502Z,100669.34
2022-11-28T08:25:40.708Z,100668.50
2022-11-28T08:28:43.858Z,100671.09
2022-11-28T08:31:46.491Z,100677.97
2022-11-28T08:34:48.666Z,100677.19
2022-11-28T08:37:51.113Z,100679.22
2022-11-28T08:41:01.923Z,100676.53
2022-11-28T08:44:04.623Z,100681.69
2022-11-28T08:47:06.791Z,100680.78
2022-11-28T08:50:09.279Z,100687.66
2022-11-28T08:53:11.713Z,100685.81
2022-11-28T08:56:14.025Z,100690.56
2022-11-28T08:59:16.316Z,100688.69
2022-11-28T09:02:21.980Z,100686.28
2022-11-28T09:05:29.638Z,100683.44
2022-11-28T09:08:31.984Z,100683.19
2022-11-28T09:11:34.522Z,100683.00
2022-11-28T09:14:36.875Z,100678.56
2022-11-28T09:17:40.630Z,100674.44
2022-11-28T09:20:43.070Z,100669.16
2022-11-28T09:23:45.748Z,100667.59
2022-11-28T09:26:48.160Z,100667.37
2022-11-28T09:29:50.517Z,100664.44
2022-11-28T09:32:52.974Z,100661.00
2022-11-28T09:35:55.809Z,100659.28
2022-11-28T09:39:00.841Z,100649.53
2022-11-28T09:42:02.983Z,100645.16
2022-11-28T09:45:14.924Z,100652.91
2022-11-28T09:48:28.158Z,100649.94
2022-11-28T09:51:48.812Z,100644.59
2022-11-28T09:55:28.748Z,100642.50
2022-11-28T09:58:39.678Z,100640.94
2022-11-28T10:02:08.978Z,100636.22
2022-11-28T10:05:31.276Z,100632.72
2022-11-28T10:09:02.094Z,100615.75
2022-11-28T10:12:25.484Z,100618.22
2022-11-28T10:15:54.979Z,100613.97
2022-11-28T10:19:03.994Z,100611.28
2022-11-28T10:22:13.740Z,100598.19
2022-11-28T10:25:27.269Z,100599.03
2022-11-28T10:28:35.018Z,100586.47
2022-11-28T10:31:41.939Z,100594.75
2022-11-28T10:35:01.802Z,100576.41
2022-11-28T10:38:11.636Z,100576.31
2022-11-28T10:41:21.206Z,100571.88
2022-11-28T10:44:32.602Z,100570.06
2022-11-28T10:48:01.094Z,100559.59
2022-11-28T10:51:28.473Z,100566.25
2022-11-28T10:54:46.027Z,100560.91
2022-11-28T10:57:52.852Z,100550.56
2022-11-28T11:00:57.938Z,100555.84
2022-11-28T11:04:00.158Z,100555.09
2022-11-28T11:07:16.405Z,100543.47
2022-11-28T11:10:37.813Z,100552.22
2022-11-28T11:14:23.548Z,100544.38
2022-11-28T11:17:43.803Z,100547.91
2022-11-28T11:20:46.082Z,100543.53
2022-11-28T11:23:50.056Z,100538.50
2022-11-28T11:26:52.399Z,100529.41
2022-11-28T11:29:55.092Z,100533.94
2022-11-28T11:32:59.407Z,100533.94
2022-11-28T11:36:05.186Z,100527.31
2022-11-28T11:39:19.860Z,100529.91
2022-11-28T11:42:30.871Z,100516.69
2022-11-28T11:45:35.306Z,100514.78
2022-11-28T11:48:41.906Z,100511.41
2022-11-28T11:51:44.077Z,100501.09
2022-11-28T11:54:58.259Z,100501.72
2022-11-28T11:58:06.042Z,100494.56
2022-11-28T12:01:11.124Z,100492.66
2022-11-28T12:04:44.333Z,100495.09
2022-11-28T12:07:55.022Z,100488.34
2022-11-28T12:11:21.501Z,100492.50
2022-11-28T12:14:29.026Z,100488.41
2022-11-28T12:17:48.612Z,100482.34
2022-11-28T12:21:07.093Z,100488.19
2022-11-28T12:24:17.791Z,100481.88
2022-11-28T12:27:31.928Z,100486.31
2022-11-28T12:30:52.725Z,100479.94
2022-11-28T12:34:18.721Z,100484.87
2022-11-28T12:38:10.464Z,100477.72
2022-11-28T12:41:19.535Z,100484.53
2022-11-28T12:44:24.712Z,100469.41
2022-11-28T12:47:54.858Z,100470.41
2022-11-28T12:51:08.978Z,100468.78
2022-11-28T12:54:26.339Z,100473.69
2022-11-28T12:57:44.342Z,100472.25
2022-11-28T13:01:14.501Z,100472.44
2022-11-28T13:05:14.366Z,100474.00
2022-11-28T13:08:35.324Z,100473.00
2022-11-28T13:11:52.490Z,100472.25
2022-11-28T13:14:57.349Z,100460.87
2022-11-28T13:18:11.564Z,100473.31
2022-11-28T13:21:55.290Z,100468.25
2022-11-28T13:25:33.032Z,100467.19
2022-11-28T13:28:56.799Z,100471.94
2022-11-28T13:32:15.623Z,100469.19
2022-11-28T13:35:19.789Z,100473.22
2022-11-28T13:39:12.913Z,100470.25
2022-11-28T13:46:06.587Z,100471.31
2022-11-28T13:49:21.148Z,100471.25
2022-11-28T13:52:26.514Z,100470.50
2022-11-28T13:55:44.886Z,100466.09
2022-11-28T13:59:01.122Z,100467.53
2022-11-28T14:02:15.672Z,100465.69
2022-11-28T14:05:41.552Z,100469.22
2022-11-28T14:08:47.001Z,100466.94
2022-11-28T14:12:07.819Z,100478.00
2022-11-28T14:15:22.417Z,100471.00
2022-11-28T14:18:55.134Z,100469.28
2022-11-28T14:21:49.484Z,100472.19
2022-11-28T14:24:57.818Z,100468.53
2022-11-28T14:28:03.159Z,100462.72
2022-11-28T14:31:32.375Z,100468.78
2022-11-28T14:34:44.065Z,100466.41
2022-11-28T14:37:53.920Z,100466.44
2022-11-28T14:40:56.547Z,100463.19
2022-11-28T14:44:36.845Z,100457.91
2022-11-28T14:47:47.764Z,100457.22
2022-11-28T14:50:59.025Z,100453.06
2022-11-28T14:54:03.057Z,100458.28
2022-11-28T14:57:17.048Z,100452.22
2022-11-28T15:00:24.433Z,100459.28
2022-11-28T15:03:46.892Z,100457.81
2022-11-28T15:06:50.519Z,100456.19
2022-11-28T15:10:23.873Z,100463.44
2022-11-28T15:13:58.846Z,100472.41
2022-11-28T15:17:05.263Z,100474.03
2022-11-28T15:20:22.391Z,100477.78
2022-11-28T15:23:37.039Z,100473.41
2022-11-28T15:26:39.346Z,100481.25
2022-11-28T15:29:41.732Z,100476.09
2022-11-28T15:32:44.398Z,100475.28
2022-11-28T15:36:22.214Z,100471.72
2022-11-28T15:39:39.630Z,100483.06
2022-11-28T15:42:41.927Z,100477.16
2022-11-28T15:45:49.461Z,100481.69
2022-11-28T15:48:53.028Z,100483.28
2022-11-28T15:51:59.881Z,100480.94
2022-11-28T15:55:03.179Z,100478.47
2022-11-28T15:58:23.788Z,100479.47
2022-11-28T16:01:30.827Z,100482.09
2022-11-28T16:04:33.139Z,100474.22
2022-11-28T16:07:41.185Z,100476.78
2022-11-28T16:10:45.185Z,100478.69
2022-11-28T16:13:48.501Z,100490.09
2022-11-28T16:16:50.833Z,100490.91
2022-11-28T16:19:56.049Z,100487.72
2022-11-28T16:23:00.562Z,100492.72
2022-11-28T16:26:18.751Z,100479.88
2022-11-28T16:29:27.454Z,100490.97
2022-11-28T16:32:38.686Z,100494.69
2022-11-28T16:35:41.801Z,100485.88
2022-11-28T16:38:44.933Z,100497.34
2022-11-28T16:41:52.281Z,100498.28
2022-11-28T16:44:54.693Z,100488.53
2022-11-28T16:48:19.869Z,100486.72
2022-11-28T16:51:22.154Z,100497.16
2022-11-28T16:54:28.563Z,100485.88
2022-11-28T16:57:48.049Z,100497.28
2022-11-28T17:01:02.585Z,100492.91
2022-11-28T17:04:05.752Z,100488.44
2022-11-28T17:07:12.311Z,100492.78
2022-11-28T17:10:14.786Z,100491.03
2022-11-28T17:13:18.800Z,100489.44
2022-11-28T17:16:24.243Z,100479.78
2022-11-28T17:19:29.037Z,100483.22
2022-11-28T17:22:41.246Z,100485.75
2022-11-28T17:25:43.929Z,100489.25
2022-11-28T17:28:47.694Z,100494.47
2022-11-28T17:31:51.169Z,100490.16
2022-11-28T17:34:53.928Z,100497.87
2022-11-28T17:37:56.607Z,100498.59
2022-11-28T17:41:00.467Z,100494.16
2022-11-28T17:44:03.444Z,100487.22
2022-11-28T17:47:11.864Z,100492.47
2022-11-28T17:50:19.054Z,100489.72
2022-11-28T17:53:21.874Z,100492.34
2022-11-28T17:56:24.435Z,100498.47
2022-11-28T17:59:28.028Z,100495.91
2022-11-28T18:02:30.978Z,100496.78
2022-11-28T18:05:38.147Z,100498.59
2022-11-28T18:08:40.953Z,100493.28
2022-11-28T18:11:46.132Z,100503.75
2022-11-28T18:14:49.037Z,100496.78
2022-11-28T18:17:52.214Z,100494.22
2022-11-28T18:20:55.103Z,100496.09
2022-11-28T18:23:58.086Z,100491.66
2022-11-28T18:27:00.850Z,100497.78
2022-11-28T18:30:04.304Z,100494.34
2022-11-28T18:33:07.002Z,100491.75
2022-11-28T18:36:23.140Z,100490.03
2022-11-28T18:39:26.089Z,100489.19
2022-11-28T18:42:28.424Z,100484.87
2022-11-28T18:45:34.490Z,100491.88
2022-11-28T18:48:39.184Z,100489.25
2022-11-28T18:51:42.074Z,100488.28
2022-11-28T18:54:45.521Z,100495.25
2022-11-28T18:57:48.303Z,100491.75
2022-11-28T19:00:51.313Z,100491.75
2022-11-28T19:04:00.486Z,100496.97
2022-11-28T19:07:07.334Z,100492.66
2022-11-28T19:10:10.466Z,100488.28
2022-11-28T19:13:13.186Z,100488.34
2022-11-28T19:16:28.615Z,100484.87
2022-11-28T19:19:31.977Z,100477.00
2022-11-28T19:22:36.605Z,100473.59
2022-11-28T19:25:41.512Z,100490.03
2022-11-28T19:28:44.970Z,100490.09
2022-11-28T19:31:47.977Z,100487.34
2022-11-28T19:34:53.507Z,100483.91
2022-11-28T19:37:56.209Z,100492.78
2022-11-28T19:40:59.033Z,100488.34
2022-11-28T19:44:02.460Z,100495.34
2022-11-28T19:47:07.391Z,100490.06
2022-11-28T19:50:10.325Z,100488.34
2022-11-28T19:53:13.119Z,100485.69
2022-11-28T19:56:18.928Z,100486.59
2022-11-28T19:59:21.303Z,100492.62
2022-11-28T20:02:24.194Z,100485.81
2022-11-28T20:05:27.009Z,100497.16
2022-11-28T20:08:30.055Z,100487.63
2022-11-28T20:11:35.904Z,100493.78
2022-11-28T20:14:38.635Z,100488.56
2022-11-28T20:17:41.333Z,100483.41
2022-11-28T20:20:44.098Z,100488.66
2022-11-28T20:23:52.347Z,100479.16
2022-11-28T20:26:54.709Z,100482.62
2022-11-28T20:30:06.591Z,100480.00
2022-11-28T20:33:11.448Z,100484.25
2022-11-28T20:36:17.618Z,100487.75
2022-11-28T20:39:21.092Z,100483.28
2022-11-28T20:42:24.772Z,100490.16
2022-11-28T20:45:30.377Z,100479.62
2022-11-28T20:48:35.052Z,100480.44
2022-11-28T20:51:38.066Z,100475.19
2022-11-28T20:54:40.877Z,100476.09
2022-11-28T20:57:43.556Z,100474.22
2022-11-28T21:00:46.891Z,100467.22
2022-11-28T21:04:23.890Z,100475.09
2022-11-28T21:07:27.656Z,100474.97
2022-11-28T21:10:32.445Z,100468.84
2022-11-28T21:13:36.189Z,100474.13
2022-11-28T21:16:39.166Z,100477.56
2022-11-28T21:19:42.383Z,100481.03
2022-11-28T21:22:45.238Z,100482.78
2022-11-28T21:25:47.689Z,100483.66
2022-11-28T21:28:53.240Z,100478.44
2022-11-28T21:31:55.826Z,100475.03
2022-11-28T21:35:03.905Z,100469.75
2022-11-28T21:38:08.046Z,100481.09
2022-11-28T21:41:10.693Z,100475.88
2022-11-28T21:44:13.152Z,100473.28
2022-11-28T21:47:15.456Z,100475.03
2022-11-28T21:50:18.103Z,100474.16
2022-11-28T21:53:20.540Z,100475.03
2022-11-28T21:56:23.367Z,100473.28
2022-11-28T21:59:25.854Z,100474.16
2022-11-28T22:02:30.960Z,100475.88
2022-11-28T22:05:34.542Z,100466.28
2022-11-28T22:08:37.046Z,100474.03
2022-11-28T22:11:39.927Z,100468.00
2022-11-28T22:14:42.332Z,100467.91
2022-11-28T22:17:44.738Z,100467.13
2022-11-28T22:20:51.609Z,100472.44
2022-11-28T22:23:55.395Z,100469.78
2022-11-28T22:26:57.875Z,100465.44
2022-11-28T22:30:01.679Z,100457.69
2022-11-28T22:33:04.146Z,100460.28
2022-11-28T22:36:18.129Z,100458.56
2022-11-28T22:39:20.554Z,100453.34
2022-11-28T22:42:22.986Z,100446.31
2022-11-28T22:45:25.431Z,100452.47
2022-11-28T22:48:30.207Z,100446.41
2022-11-28T22:51:32.668Z,100452.59
2022-11-28T22:54:35.125Z,100451.63
2022-11-28T22:57:37.525Z,100454.22
2022-11-28T23:00:40.076Z,100451.53
2022-11-28T23:03:42.575Z,100450.69
2022-11-28T23:06:45.399Z,100453.19
2022-11-28T23:09:47.736Z,100444.53
2022-11-28T23:12:50.180Z,100445.41
2022-11-28T23:15:53.033Z,100438.41
2022-11-28T23:18:58.075Z,100436.66
2022-11-28T23:22:00.534Z,100425.38
2022-11-28T23:25:02.923Z,100428.81
2022-11-28T23:28:05.348Z,100441.78
2022-11-28T23:31:13.289Z,100431.34
2022-11-28T23:34:16.098Z,100427.88
2022-11-28T23:37:18.790Z,100427.91
2022-11-28T23:40:21.081Z,100424.38
2022-11-28T23:43:23.553Z,100427.00
2022-11-28T23:46:27.760Z,100420.00
2022-11-28T23:49:30.196Z,100415.69
2022-11-28T23:52:33.460Z,100413.87
2022-11-28T23:55:35.918Z,100413.00
2022-11-28T23:58:39.289Z,100412.94
